Time;durP1;ratioP1;P1;durP2;ratioP2;P2;SDS_P1;SDS_P2;PMS_P1;PMS_P2;Temp;Humidity;BMP_temperature;BMP_pressure;BME280_temperature;BME280_humidity;BME280_pressure;Samples;Min_cycle;Max_cycle;Signal;HPM_P1;HPM_P2
2024/02/28 00:00:25;;;;;;;13.53;8.40;;;1.60;99.90;;;;;;5017079;28;21542;-72
2024/02/28 00:02:52;;;;;;;10.97;6.30;;;1.50;99.90;;;;;;5014365;28;20430;-73
2024/02/28 00:05:19;;;;;;;17.40;8.20;;;1.60;99.90;;;;;;5018598;28;20435;-73
2024/02/28 00:07:46;;;;;;;8.17;5.57;;;1.50;99.90;;;;;;5017129;28;20912;-73
2024/02/28 00:10:13;;;;;;;12.97;7.03;;;1.60;99.90;;;;;;5020696;28;20493;-73
2024/02/28 00:12:41;;;;;;;15.97;6.83;;;1.60;99.90;;;;;;5020974;28;20766;-73
2024/02/28 00:15:10;;;;;;;18.50;8.40;;;1.50;99.90;;;;;;5020601;28;22056;-72
2024/02/28 00:17:40;;;;;;;14.50;7.83;;;1.60;99.90;;;;;;5020197;28;20483;-72
2024/02/28 00:20:08;;;;;;;15.03;6.23;;;1.70;99.90;;;;;;5022244;28;20488;-73
2024/02/28 00:22:36;;;;;;;10.37;4.87;;;1.70;99.90;;;;;;5020302;28;20447;-72
2024/02/28 00:25:02;;;;;;;19.93;6.93;;;1.70;99.90;;;;;;5019463;28;20435;-73
2024/02/28 00:27:29;;;;;;;19.07;9.20;;;1.70;99.90;;;;;;5015109;28;20465;-72
2024/02/28 00:29:56;;;;;;;18.27;7.67;;;1.80;99.90;;;;;;5024072;28;20469;-73
2024/02/28 00:32:24;;;;;;;12.13;7.60;;;1.80;99.90;;;;;;5014938;28;20456;-73
2024/02/28 00:34:51;;;;;;;10.10;7.80;;;1.70;99.90;;;;;;5018253;28;20459;-73
2024/02/28 00:37:17;;;;;;;11.10;7.47;;;1.60;99.90;;;;;;5013290;28;20446;-73
2024/02/28 00:39:45;;;;;;;13.07;6.80;;;1.50;99.90;;;;;;5013799;28;20484;-73
2024/02/28 00:42:12;;;;;;;12.00;8.43;;;1.40;99.90;;;;;;5018660;28;20443;-73
2024/02/28 00:44:42;;;;;;;21.63;7.70;;;1.40;99.90;;;;;;5016818;28;20983;-73
2024/02/28 00:47:09;;;;;;;14.60;10.03;;;1.30;99.90;;;;;;5016682;28;20439;-73
2024/02/28 00:49:37;;;;;;;11.63;5.80;;;1.30;99.90;;;;;;5019994;28;20472;-73
2024/02/28 00:52:04;;;;;;;12.97;6.23;;;1.40;99.90;;;;;;5021339;28;20555;-73
2024/02/28 00:54:30;;;;;;;10.70;6.17;;;1.30;99.90;;;;;;5024335;28;20974;-73
2024/02/28 00:56:57;;;;;;;9.80;4.43;;;1.20;99.90;;;;;;5021326;28;20508;-73
2024/02/28 00:59:24;;;;;;;18.37;9.97;;;1.10;99.90;;;;;;5021101;28;20495;-73
2024/02/28 01:01:51;;;;;;;13.30;7.17;;;1.10;99.90;;;;;;5014154;28;20432;-73
2024/02/28 01:04:18;;;;;;;17.70;7.50;;;1.00;99.90;;;;;;5014644;28;20464;-73
2024/02/28 01:06:46;;;;;;;14.33;6.17;;;1.10;99.90;;;;;;5018509;28;20449;-72
2024/02/28 01:09:13;;;;;;;13.83;6.87;;;1.10;99.90;;;;;;5021711;28;20502;-73
2024/02/28 01:11:39;;;;;;;18.87;8.50;;;0.90;99.90;;;;;;5018244;28;20554;-73
2024/02/28 01:14:06;;;;;;;13.30;5.97;;;0.90;99.90;;;;;;5019663;28;20476;-73
2024/02/28 01:16:33;;;;;;;15.87;7.37;;;1.00;99.90;;;;;;5014076;28;20471;-72
2024/02/28 01:19:00;;;;;;;10.87;7.23;;;1.10;99.90;;;;;;5013815;28;20488;-72
2024/02/28 01:21:26;;;;;;;10.97;8.17;;;1.10;99.90;;;;;;5018297;28;20556;-72
2024/02/28 01:23:54;;;;;;;20.93;10.37;;;1.10;99.90;;;;;;5016531;28;20472;-72
2024/02/28 01:26:22;;;;;;;13.40;7.23;;;1.10;99.90;;;;;;5011075;28;20825;-72
2024/02/28 01:28:48;;;;;;;20.83;6.57;;;1.30;99.90;;;;;;5018668;28;20512;-72
2024/02/28 01:31:15;;;;;;;16.50;6.77;;;1.30;99.90;;;;;;5012107;28;20465;-72
2024/02/28 01:33:42;;;;;;;16.90;6.43;;;1.30;99.90;;;;;;5008962;28;20476;-73
2024/02/28 01:36:09;;;;;;;15.33;7.90;;;1.30;99.90;;;;;;5018086;28;20464;-73
2024/02/28 01:38:36;;;;;;;18.97;8.87;;;1.40;99.90;;;;;;5017205;28;20484;-72
2024/02/28 01:41:05;;;;;;;22.73;9.47;;;1.40;99.90;;;;;;5017794;28;20460;-72
2024/02/28 01:43:32;;;;;;;8.70;5.57;;;1.40;99.90;;;;;;5014545;28;20475;-73
2024/02/28 01:46:02;;;;;;;14.80;7.83;;;1.40;99.90;;;;;;5023003;28;20439;-73
2024/02/28 01:48:29;;;;;;;12.97;6.00;;;1.30;99.90;;;;;;5013278;28;20526;-73
2024/02/28 01:50:56;;;;;;;7.50;5.17;;;1.30;99.90;;;;;;5020909;28;20963;-72
2024/02/28 01:53:23;;;;;;;14.23;6.57;;;1.20;99.90;;;;;;5014221;28;20441;-72
2024/02/28 01:55:51;;;;;;;10.67;6.07;;;1.00;99.90;;;;;;5017521;28;20471;-73
2024/02/28 01:58:20;;;;;;;10.47;5.97;;;0.80;99.90;;;;;;5006121;28;20484;-73
2024/02/28 02:00:48;;;;;;;16.73;6.27;;;0.90;99.90;;;;;;5013108;28;20439;-72
2024/02/28 02:03:22;;;;;;;8.70;6.40;;;0.80;99.90;;;;;;5004513;28;20423;-73
2024/02/28 02:05:49;;;;;;;18.77;8.20;;;0.80;99.90;;;;;;5004960;28;20538;-73
2024/02/28 02:08:16;;;;;;;4.57;4.00;;;0.80;99.90;;;;;;5019168;28;20528;-73
2024/02/28 02:10:43;;;;;;;14.43;7.27;;;0.90;99.90;;;;;;5012590;28;20447;-74
2024/02/28 02:13:09;;;;;;;12.10;8.07;;;0.90;99.90;;;;;;5011362;28;20877;-73
2024/02/28 02:15:38;;;;;;;22.87;6.40;;;0.90;99.90;;;;;;5011763;28;20459;-72
2024/02/28 02:18:05;;;;;;;16.10;7.20;;;1.10;99.90;;;;;;5008143;28;20464;-73
2024/02/28 02:20:36;;;;;;;9.33;6.30;;;1.00;99.90;;;;;;5014458;28;20437;-73
2024/02/28 02:23:05;;;;;;;7.70;6.40;;;1.00;99.90;;;;;;5012889;28;20468;-73
2024/02/28 02:25:32;;;;;;;22.00;8.03;;;1.00;99.90;;;;;;5013758;28;20435;-73
2024/02/28 02:27:59;;;;;;;16.67;7.93;;;1.10;99.90;;;;;;5017494;28;20920;-73
2024/02/28 02:30:25;;;;;;;10.27;6.57;;;1.00;99.90;;;;;;5019085;28;20547;-75
2024/02/28 02:32:52;;;;;;;15.97;7.37;;;1.10;99.90;;;;;;5013805;28;20884;-73
2024/02/28 02:35:19;;;;;;;18.93;8.53;;;1.10;99.90;;;;;;5016966;28;20454;-73
2024/02/28 02:37:47;;;;;;;14.33;7.67;;;1.10;99.90;;;;;;5018763;28;21001;-73
2024/02/28 02:40:16;;;;;;;16.00;8.10;;;1.00;99.90;;;;;;5019086;28;20500;-73
2024/02/28 02:42:43;;;;;;;14.93;9.60;;;1.00;99.90;;;;;;5017799;28;20453;-73
2024/02/28 02:45:10;;;;;;;11.97;8.13;;;1.00;99.90;;;;;;5014743;28;20492;-73
2024/02/28 02:47:40;;;;;;;9.00;4.60;;;0.90;99.90;;;;;;5021125;28;20464;-73
2024/02/28 02:50:07;;;;;;;16.83;7.27;;;0.70;99.90;;;;;;5024001;28;20474;-72
2024/02/28 02:52:34;;;;;;;13.43;5.37;;;0.80;99.90;;;;;;5022252;28;20582;-72
2024/02/28 02:55:01;;;;;;;13.00;7.87;;;0.80;99.90;;;;;;5019328;28;20438;-72
2024/02/28 02:57:30;;;;;;;8.30;5.40;;;1.10;99.90;;;;;;5019260;28;20436;-72
2024/02/28 02:59:57;;;;;;;21.10;7.10;;;1.30;99.90;;;;;;5015690;28;20562;-73
2024/02/28 03:02:24;;;;;;;10.20;5.40;;;1.40;99.90;;;;;;5020341;28;20446;-73
2024/02/28 03:04:51;;;;;;;21.60;7.70;;;1.50;99.90;;;;;;5011933;28;20472;-72
2024/02/28 03:07:17;;;;;;;14.20;7.70;;;1.60;99.90;;;;;;5016357;28;20435;-72
2024/02/28 03:09:44;;;;;;;20.23;6.37;;;1.40;99.90;;;;;;5021143;28;20484;-72
2024/02/28 03:12:12;;;;;;;15.37;6.53;;;1.40;99.90;;;;;;5019389;28;21097;-72
2024/02/28 03:14:40;;;;;;;20.63;9.17;;;1.60;99.90;;;;;;5008107;28;20459;-72
2024/02/28 03:17:07;;;;;;;17.70;7.77;;;1.60;99.90;;;;;;5007488;28;20439;-72
2024/02/28 03:19:35;;;;;;;13.10;6.90;;;1.80;99.90;;;;;;5016262;28;20499;-72
2024/02/28 03:22:02;;;;;;;19.33;8.60;;;1.90;99.90;;;;;;5019923;28;20464;-72
2024/02/28 03:24:29;;;;;;;14.20;6.90;;;2.10;99.90;;;;;;5017170;28;20464;-72
2024/02/28 03:26:56;;;;;;;12.53;7.83;;;2.10;99.90;;;;;;5019054;28;20457;-72
2024/02/28 03:29:23;;;;;;;26.30;9.43;;;2.20;99.90;;;;;;5010858;28;20461;-72
2024/02/28 03:31:51;;;;;;;37.27;9.70;;;2.10;99.90;;;;;;4999761;28;20475;-72
2024/02/28 03:34:17;;;;;;;15.00;7.10;;;2.20;99.90;;;;;;5016890;28;20816;-72
2024/02/28 03:36:44;;;;;;;19.93;10.13;;;2.40;99.90;;;;;;5016263;28;21116;-73
2024/02/28 03:39:11;;;;;;;13.20;6.20;;;2.50;99.90;;;;;;5019275;28;20488;-73
2024/02/28 03:41:37;;;;;;;11.33;7.33;;;2.50;99.90;;;;;;5023216;28;20806;-74
2024/02/28 03:44:05;;;;;;;21.10;8.37;;;2.60;99.90;;;;;;5005374;28;20448;-72
2024/02/28 03:46:31;;;;;;;17.03;7.60;;;2.70;99.90;;;;;;5012593;28;20465;-72
2024/02/28 03:48:59;;;;;;;15.53;7.03;;;2.80;99.90;;;;;;5013043;28;20454;-73
2024/02/28 03:51:26;;;;;;;27.33;8.30;;;2.80;99.90;;;;;;5016828;28;20435;-72
2024/02/28 03:53:53;;;;;;;14.17;7.17;;;2.80;99.90;;;;;;5013311;28;20909;-73
2024/02/28 03:56:23;;;;;;;15.23;9.03;;;2.90;99.90;;;;;;5020255;28;20456;-73
2024/02/28 03:58:50;;;;;;;27.37;10.50;;;2.90;99.90;;;;;;5015613;28;21224;-73
2024/02/28 04:01:17;;;;;;;19.53;8.87;;;3.00;99.90;;;;;;5015214;28;20471;-73
2024/02/28 04:03:44;;;;;;;30.80;12.03;;;3.10;99.90;;;;;;5020234;28;20562;-72
2024/02/28 04:06:12;;;;;;;37.53;8.53;;;3.00;99.90;;;;;;5016602;28;20468;-73
2024/02/28 04:08:41;;;;;;;24.10;11.83;;;3.00;99.90;;;;;;5021831;28;20484;-73
2024/02/28 04:11:08;;;;;;;28.50;15.57;;;3.20;99.90;;;;;;5014970;28;20816;-73
2024/02/28 04:13:34;;;;;;;28.07;9.03;;;3.20;99.90;;;;;;5018388;28;20436;-73
2024/02/28 04:16:03;;;;;;;26.93;11.63;;;3.20;99.90;;;;;;5019302;28;20424;-73
2024/02/28 04:18:30;;;;;;;27.33;11.50;;;3.30;99.90;;;;;;5021954;28;20463;-72
2024/02/28 04:20:56;;;;;;;20.47;9.13;;;3.40;99.90;;;;;;5018168;28;20491;-72
2024/02/28 04:23:24;;;;;;;32.50;14.37;;;3.40;99.90;;;;;;5015910;28;20507;-72
2024/02/28 04:25:51;;;;;;;35.67;15.07;;;3.50;99.90;;;;;;5020155;28;20455;-72
2024/02/28 04:28:18;;;;;;;27.10;14.07;;;3.30;99.90;;;;;;5013786;28;20505;-72
2024/02/28 04:30:45;;;;;;;27.97;12.37;;;3.30;99.90;;;;;;5016560;28;20468;-72
2024/02/28 04:33:12;;;;;;;22.87;10.37;;;3.40;99.90;;;;;;5015703;28;20521;-72
2024/02/28 04:35:38;;;;;;;22.23;12.40;;;3.40;99.90;;;;;;5017843;28;20483;-73
2024/02/28 04:38:05;;;;;;;29.17;12.20;;;3.30;99.90;;;;;;5017651;28;20942;-73
2024/02/28 04:40:33;;;;;;;22.73;11.60;;;3.50;99.90;;;;;;5013613;28;20450;-72
2024/02/28 04:43:00;;;;;;;23.37;10.27;;;3.60;99.90;;;;;;5013210;28;22891;-72
2024/02/28 04:45:27;;;;;;;29.13;15.10;;;3.60;99.90;;;;;;5022774;28;20439;-72
2024/02/28 04:47:55;;;;;;;37.60;18.57;;;3.50;99.90;;;;;;5022903;28;21200;-72
2024/02/28 04:50:21;;;;;;;36.47;12.33;;;3.50;99.90;;;;;;5026670;28;20515;-72
2024/02/28 04:52:48;;;;;;;43.17;15.30;;;3.60;99.90;;;;;;5027282;28;20439;-72
2024/02/28 04:55:15;;;;;;;41.97;11.53;;;3.50;99.90;;;;;;5017255;28;20932;-72
2024/02/28 04:57:43;;;;;;;23.07;13.80;;;3.70;99.90;;;;;;5019207;28;20809;-72
2024/02/28 05:00:10;;;;;;;29.17;11.87;;;3.70;99.90;;;;;;5019857;28;20464;-72
2024/02/28 05:02:37;;;;;;;30.23;13.27;;;3.70;99.90;;;;;;5020769;28;20458;-72
2024/02/28 05:05:05;;;;;;;43.50;12.53;;;3.80;99.90;;;;;;5023295;28;20430;-72
2024/02/28 05:07:31;;;;;;;25.43;9.47;;;3.70;99.90;;;;;;5026831;28;21133;-72
2024/02/28 05:09:58;;;;;;;33.60;14.60;;;3.60;99.90;;;;;;5022206;28;20439;-73
2024/02/28 05:12:25;;;;;;;32.00;12.63;;;3.40;99.90;;;;;;5018252;28;20437;-73
2024/02/28 05:14:53;;;;;;;30.50;12.50;;;3.50;99.90;;;;;;5016364;28;20467;-72
2024/02/28 05:17:19;;;;;;;45.30;12.63;;;3.30;99.90;;;;;;5013690;28;20431;-72
2024/02/28 05:19:46;;;;;;;35.43;13.10;;;3.40;99.90;;;;;;5012838;28;20534;-73
2024/02/28 05:22:13;;;;;;;39.47;10.63;;;3.50;99.90;;;;;;5013887;28;21013;-72
2024/02/28 05:24:43;;;;;;;34.30;15.57;;;3.60;99.90;;;;;;5015269;28;20435;-72
2024/02/28 05:27:10;;;;;;;50.00;16.93;;;3.70;99.90;;;;;;5017481;28;20471;-73
2024/02/28 05:29:36;;;;;;;67.73;15.70;;;3.90;99.90;;;;;;5016368;28;20468;-73
2024/02/28 05:32:05;;;;;;;39.67;15.67;;;3.90;99.90;;;;;;5011049;28;20460;-73
2024/02/28 05:34:32;;;;;;;51.50;15.93;;;3.90;99.90;;;;;;5015174;28;20430;-73
2024/02/28 05:37:00;;;;;;;35.70;14.63;;;4.10;99.90;;;;;;5018542;28;20483;-73
2024/02/28 05:39:29;;;;;;;46.43;19.97;;;4.10;99.90;;;;;;5014142;28;20492;-73
2024/02/28 05:41:55;;;;;;;44.37;16.47;;;4.10;99.90;;;;;;5021736;28;20493;-73
2024/02/28 05:44:22;;;;;;;34.73;12.10;;;4.20;99.90;;;;;;5024187;28;20450;-73
2024/02/28 05:46:49;;;;;;;52.00;18.83;;;4.20;99.90;;;;;;5017521;28;20440;-73
2024/02/28 05:49:17;;;;;;;36.00;13.77;;;4.30;99.90;;;;;;5009330;28;20487;-73
2024/02/28 05:51:44;;;;;;;43.90;17.70;;;4.30;99.90;;;;;;5011838;28;20460;-73
2024/02/28 05:54:11;;;;;;;41.53;16.60;;;4.40;99.90;;;;;;5016315;28;20441;-73
2024/02/28 05:56:38;;;;;;;33.63;13.23;;;4.50;99.90;;;;;;5023139;28;20475;-73
2024/02/28 05:59:05;;;;;;;29.20;12.43;;;4.40;99.90;;;;;;5017418;28;20558;-73
2024/02/28 06:01:31;;;;;;;69.70;16.80;;;4.50;99.90;;;;;;5015074;28;20477;-73
2024/02/28 06:03:58;;;;;;;38.37;17.50;;;4.40;99.90;;;;;;5017502;28;20476;-73
2024/02/28 06:06:26;;;;;;;50.17;18.00;;;4.50;99.90;;;;;;5019536;28;20551;-73
2024/02/28 06:08:53;;;;;;;51.00;17.03;;;4.60;99.90;;;;;;5014316;28;20513;-72
2024/02/28 06:11:20;;;;;;;32.63;15.17;;;4.70;99.90;;;;;;5018013;28;20446;-72
2024/02/28 06:13:49;;;;;;;39.20;16.07;;;4.60;99.90;;;;;;5020433;28;20486;-72
2024/02/28 06:16:17;;;;;;;32.70;11.30;;;4.60;99.90;;;;;;5020865;28;20508;-72
2024/02/28 06:18:44;;;;;;;39.20;14.67;;;4.60;99.90;;;;;;5017737;28;20501;-74
2024/02/28 06:21:11;;;;;;;32.50;11.47;;;4.60;99.90;;;;;;5014993;28;20461;-73
2024/02/28 06:23:39;;;;;;;44.17;17.47;;;4.60;99.90;;;;;;5015292;28;20457;-72
2024/02/28 06:26:06;;;;;;;47.00;16.93;;;4.70;99.90;;;;;;5016765;28;20435;-72
2024/02/28 06:28:33;;;;;;;42.87;14.87;;;4.70;99.90;;;;;;5016363;28;20454;-72
2024/02/28 06:30:59;;;;;;;41.33;17.00;;;4.80;99.90;;;;;;5017432;28;20429;-72
2024/02/28 06:33:26;;;;;;;29.30;15.20;;;4.70;99.90;;;;;;5017153;28;20472;-72
2024/02/28 06:35:53;;;;;;;29.70;15.33;;;4.80;99.90;;;;;;5014942;28;20448;-73
2024/02/28 06:38:20;;;;;;;36.30;15.27;;;4.80;99.90;;;;;;5017254;28;20433;-72
2024/02/28 06:40:48;;;;;;;35.80;16.67;;;4.80;99.90;;;;;;5014557;28;20460;-74
2024/02/28 06:43:15;;;;;;;39.20;14.93;;;4.60;99.90;;;;;;5016559;28;20447;-72
2024/02/28 06:45:42;;;;;;;33.00;17.53;;;4.50;99.90;;;;;;5020017;28;20464;-72
2024/02/28 06:48:09;;;;;;;43.87;12.97;;;4.60;99.90;;;;;;5022698;28;20478;-72
2024/02/28 06:50:36;;;;;;;41.10;16.13;;;4.80;99.90;;;;;;5013048;28;20451;-72
2024/02/28 06:53:03;;;;;;;39.60;15.17;;;4.80;99.90;;;;;;5020483;28;20446;-73
2024/02/28 06:55:30;;;;;;;48.30;16.93;;;4.80;99.90;;;;;;5015633;28;20551;-72
2024/02/28 06:57:58;;;;;;;42.27;14.47;;;4.90;99.90;;;;;;5025974;28;20725;-72
2024/02/28 07:00:25;;;;;;;42.60;15.53;;;4.90;99.90;;;;;;5016978;28;20451;-72
2024/02/28 07:02:53;;;;;;;38.53;14.87;;;4.90;99.90;;;;;;5023708;28;20438;-72
2024/02/28 07:05:20;;;;;;;34.80;15.77;;;4.90;99.90;;;;;;5018256;28;20577;-72
2024/02/28 07:07:46;;;;;;;31.57;10.30;;;4.70;99.90;;;;;;5021080;28;20462;-72
2024/02/28 07:10:13;;;;;;;31.13;11.97;;;4.70;99.90;;;;;;5020103;28;20997;-72
2024/02/28 07:12:40;;;;;;;31.70;14.00;;;4.90;99.90;;;;;;5020639;28;20462;-72
2024/02/28 07:15:09;;;;;;;33.90;16.50;;;5.10;99.90;;;;;;5020941;28;20466;-76
2024/02/28 07:17:35;;;;;;;29.40;14.90;;;5.10;99.90;;;;;;5024229;28;20551;-71
2024/02/28 07:20:02;;;;;;;41.93;12.93;;;5.10;99.90;;;;;;5010685;28;20491;-72
2024/02/28 07:22:29;;;;;;;30.50;15.13;;;5.10;99.90;;;;;;5021437;28;20442;-72
2024/02/28 07:24:56;;;;;;;31.17;14.87;;;5.30;99.90;;;;;;5014455;28;21049;-73
2024/02/28 07:27:24;;;;;;;34.50;15.23;;;5.40;99.90;;;;;;5015204;28;20431;-72
2024/02/28 07:29:50;;;;;;;33.70;14.87;;;5.50;99.90;;;;;;5023041;28;20458;-72
2024/02/28 07:32:20;;;;;;;42.63;14.97;;;5.50;99.90;;;;;;5022582;28;20446;-72
2024/02/28 07:34:46;;;;;;;34.07;14.43;;;5.60;99.90;;;;;;5018178;28;20446;-72
2024/02/28 07:37:13;;;;;;;37.03;15.67;;;5.60;99.90;;;;;;5021368;28;20463;-72
2024/02/28 07:39:40;;;;;;;37.17;14.50;;;5.60;99.90;;;;;;5020396;28;20794;-72
2024/02/28 07:42:07;;;;;;;36.33;14.20;;;5.70;99.90;;;;;;5020424;28;20484;-72
2024/02/28 07:44:33;;;;;;;40.00;16.43;;;5.80;99.90;;;;;;5022186;28;20785;-72
2024/02/28 07:47:00;;;;;;;26.33;13.10;;;5.80;99.90;;;;;;5014170;28;20942;-72
2024/02/28 07:49:28;;;;;;;28.13;12.40;;;5.70;99.90;;;;;;5016569;28;20461;-72
2024/02/28 07:51:55;;;;;;;50.57;16.20;;;5.80;99.90;;;;;;5022973;28;20815;-72
2024/02/28 07:54:22;;;;;;;40.90;13.33;;;5.80;99.90;;;;;;5019278;28;20517;-72
2024/02/28 07:56:49;;;;;;;41.30;15.60;;;5.80;99.90;;;;;;5017327;28;20516;-72
2024/02/28 07:59:16;;;;;;;32.63;13.37;;;5.80;99.90;;;;;;5020636;28;20458;-72
2024/02/28 08:01:43;;;;;;;20.90;10.10;;;5.70;99.90;;;;;;5017582;28;20466;-72
2024/02/28 08:04:10;;;;;;;33.50;12.60;;;5.80;99.90;;;;;;5014594;28;20967;-72
2024/02/28 08:06:38;;;;;;;34.13;11.63;;;5.70;99.90;;;;;;5018784;28;20471;-72
2024/02/28 08:09:05;;;;;;;34.23;13.50;;;5.70;99.90;;;;;;5019254;28;20851;-72
2024/02/28 08:11:31;;;;;;;28.53;9.27;;;5.70;99.90;;;;;;5016184;28;20503;-74
2024/02/28 08:13:58;;;;;;;25.53;10.60;;;5.70;99.90;;;;;;5020284;28;21162;-73
2024/02/28 08:16:25;;;;;;;30.57;10.67;;;5.70;99.90;;;;;;5014870;28;20446;-72
2024/02/28 08:18:52;;;;;;;36.67;15.90;;;5.50;99.90;;;;;;5014815;28;20465;-73
2024/02/28 08:21:19;;;;;;;27.63;11.03;;;5.40;99.90;;;;;;5019094;28;20491;-73
2024/02/28 08:23:47;;;;;;;37.20;13.50;;;5.50;99.90;;;;;;5016840;28;20443;-73
2024/02/28 08:26:15;;;;;;;26.37;11.00;;;5.30;99.90;;;;;;5023823;28;20788;-72
2024/02/28 08:28:41;;;;;;;28.40;9.97;;;5.40;99.90;;;;;;5021732;28;20494;-72
2024/02/28 08:31:08;;;;;;;31.53;12.03;;;5.50;99.90;;;;;;5010835;28;20529;-73
2024/02/28 08:33:35;;;;;;;19.23;9.47;;;5.60;99.90;;;;;;5010423;28;20453;-73
2024/02/28 08:36:01;;;;;;;29.60;13.30;;;5.60;99.90;;;;;;5017752;28;21236;-73
2024/02/28 08:38:28;;;;;;;33.87;7.67;;;5.70;99.90;;;;;;5017943;28;20470;-73
2024/02/28 08:40:56;;;;;;;27.10;14.17;;;5.60;99.90;;;;;;5016608;28;20474;-73
2024/02/28 08:43:23;;;;;;;29.00;10.77;;;5.50;99.90;;;;;;5018626;28;20442;-73
2024/02/28 08:45:51;;;;;;;36.67;13.00;;;5.60;99.90;;;;;;5017274;28;20484;-73
2024/02/28 08:48:18;;;;;;;28.50;12.17;;;5.80;99.90;;;;;;5016256;28;20446;-73
2024/02/28 08:50:45;;;;;;;33.30;13.57;;;6.10;99.90;;;;;;5017042;28;21184;-73
2024/02/28 08:53:12;;;;;;;32.43;13.13;;;6.20;99.90;;;;;;5024074;28;20457;-73
2024/02/28 08:55:38;;;;;;;27.50;11.67;;;6.30;99.90;;;;;;5020647;28;20461;-73
2024/02/28 08:58:06;;;;;;;22.63;11.80;;;6.30;99.90;;;;;;5023864;28;20464;-73
2024/02/28 09:00:34;;;;;;;22.50;8.67;;;6.30;99.90;;;;;;5022336;28;20465;-72
2024/02/28 09:03:01;;;;;;;24.23;10.30;;;6.50;99.90;;;;;;5009277;28;20602;-73
2024/02/28 09:05:28;;;;;;;27.23;12.20;;;6.70;99.90;;;;;;5012865;28;20814;-73
2024/02/28 09:07:55;;;;;;;20.90;11.00;;;6.70;99.90;;;;;;5019183;28;20922;-73
2024/02/28 09:10:24;;;;;;;32.47;9.27;;;6.90;99.90;;;;;;5019784;28;20462;-73
2024/02/28 09:12:50;;;;;;;27.77;13.23;;;7.00;99.90;;;;;;5021146;28;20439;-73
2024/02/28 09:15:19;;;;;;;24.83;8.40;;;7.20;99.90;;;;;;5014861;28;20435;-73
2024/02/28 09:17:45;;;;;;;23.43;10.77;;;7.10;99.90;;;;;;5016413;28;21762;-73
2024/02/28 09:20:13;;;;;;;28.70;11.60;;;7.00;99.90;;;;;;5013172;28;20454;-73
2024/02/28 09:22:40;;;;;;;18.57;9.30;;;7.30;99.90;;;;;;5019049;28;20483;-73
2024/02/28 09:25:08;;;;;;;29.50;12.10;;;7.50;99.90;;;;;;5020901;28;20930;-73
2024/02/28 09:27:35;;;;;;;27.63;13.67;;;7.70;99.90;;;;;;5023591;28;20502;-73
2024/02/28 09:30:02;;;;;;;27.37;9.97;;;7.90;99.90;;;;;;5018232;28;20498;-73
2024/02/28 09:32:30;;;;;;;27.17;12.43;;;7.90;99.90;;;;;;5011279;28;20452;-73
2024/02/28 09:34:57;;;;;;;20.90;7.83;;;7.90;99.90;;;;;;5017590;28;20469;-73
2024/02/28 09:37:24;;;;;;;14.27;6.90;;;7.70;99.90;;;;;;5018544;28;20829;-72
2024/02/28 09:39:52;;;;;;;36.60;11.27;;;7.50;99.90;;;;;;5015872;28;20550;-73
2024/02/28 09:42:19;;;;;;;27.37;13.97;;;7.50;99.90;;;;;;5013786;28;20587;-73
2024/02/28 09:44:47;;;;;;;18.87;8.63;;;7.80;99.90;;;;;;5018130;28;20446;-73
2024/02/28 09:47:14;;;;;;;30.37;12.10;;;7.80;99.90;;;;;;5010512;28;20459;-73
2024/02/28 09:49:43;;;;;;;25.57;12.40;;;7.90;99.90;;;;;;5011348;28;20480;-73
2024/02/28 09:52:10;;;;;;;25.10;11.10;;;8.10;99.90;;;;;;5019666;28;20439;-73
2024/02/28 09:54:36;;;;;;;31.47;13.10;;;8.10;99.90;;;;;;5016000;28;20465;-73
2024/02/28 09:57:05;;;;;;;31.63;14.73;;;8.20;99.90;;;;;;5017343;28;20431;-73
2024/02/28 09:59:32;;;;;;;32.57;13.07;;;8.20;99.90;;;;;;5016108;28;20575;-73
2024/02/28 10:02:01;;;;;;;25.87;12.73;;;8.30;99.90;;;;;;5017258;28;20462;-73
2024/02/28 10:04:28;;;;;;;15.93;7.03;;;8.80;99.90;;;;;;5013066;28;20440;-73
2024/02/28 10:06:57;;;;;;;30.33;12.10;;;8.70;99.90;;;;;;5018768;28;20584;-73
2024/02/28 10:09:24;;;;;;;24.80;11.60;;;8.60;99.90;;;;;;5015378;28;20476;-73
2024/02/28 10:11:50;;;;;;;19.17;9.57;;;8.70;99.90;;;;;;5006782;28;20469;-73
2024/02/28 10:14:20;;;;;;;32.10;13.40;;;9.10;99.90;;;;;;5019822;28;20464;-73
2024/02/28 10:16:47;;;;;;;23.53;10.43;;;9.50;99.90;;;;;;5020454;28;20851;-73
2024/02/28 10:19:14;;;;;;;18.47;10.67;;;9.40;99.90;;;;;;5015442;28;21002;-73
2024/02/28 10:21:40;;;;;;;19.50;10.47;;;9.20;99.90;;;;;;5018389;28;20481;-73
2024/02/28 10:24:08;;;;;;;28.27;13.53;;;9.20;99.90;;;;;;5016079;28;20987;-73
2024/02/28 10:26:43;;;;;;;25.63;13.17;;;9.00;99.90;;;;;;5026200;28;20464;-73
2024/02/28 10:29:10;;;;;;;19.90;10.70;;;8.70;99.90;;;;;;5021586;28;20487;-73
2024/02/28 10:31:37;;;;;;;27.67;13.37;;;8.40;99.90;;;;;;5012493;28;20428;-73
2024/02/28 10:34:05;;;;;;;26.00;11.20;;;8.40;99.90;;;;;;5024441;28;20765;-73
2024/02/28 10:36:33;;;;;;;22.53;11.50;;;9.20;99.90;;;;;;5020302;28;20439;-73
2024/02/28 10:39:01;;;;;;;18.23;8.40;;;10.20;99.90;;;;;;5011985;28;20455;-73
2024/02/28 10:41:30;;;;;;;8.07;6.60;;;10.70;99.90;;;;;;5011026;28;20477;-71
2024/02/28 10:43:57;;;;;;;19.33;12.40;;;10.80;99.90;;;;;;5016036;28;20464;-73
2024/02/28 10:46:24;;;;;;;14.80;9.03;;;10.40;99.90;;;;;;5012404;28;20460;-72
2024/02/28 10:48:52;;;;;;;16.33;10.67;;;10.40;99.90;;;;;;5019990;28;21391;-73
2024/02/28 10:51:24;;;;;;;8.07;5.50;;;11.00;99.90;;;;;;5020497;28;21119;-72
2024/02/28 10:54:03;;;;;;;25.13;11.53;;;11.20;99.90;;;;;;5026741;28;20514;-72
2024/02/28 10:56:32;;;;;;;21.77;11.00;;;11.80;99.90;;;;;;5018229;28;20464;-72
2024/02/28 10:59:00;;;;;;;26.63;12.77;;;13.10;99.90;;;;;;5009655;28;20495;-72
2024/02/28 11:01:28;;;;;;;22.97;10.30;;;13.80;99.90;;;;;;5021201;28;20488;-72
2024/02/28 11:03:55;;;;;;;24.60;11.70;;;14.20;99.90;;;;;;5019065;28;20465;-72
2024/02/28 11:06:23;;;;;;;20.83;11.00;;;14.00;99.90;;;;;;5015178;28;20471;-72
2024/02/28 11:08:53;;;;;;;24.10;12.40;;;13.40;99.90;;;;;;5026766;28;20532;-72
2024/02/28 11:11:21;;;;;;;25.60;12.30;;;13.00;99.90;;;;;;5186810;23;21036;-72
2024/02/28 11:14:00;;;;;;;23.23;12.37;;;13.00;99.90;;;;;;5021681;28;20517;-72
2024/02/28 11:16:28;;;;;;;30.87;13.63;;;12.70;99.90;;;;;;5016682;28;20824;-73
2024/02/28 11:18:55;;;;;;;22.27;11.30;;;13.10;99.90;;;;;;5014466;28;20508;-72
2024/02/28 11:21:25;;;;;;;27.20;11.50;;;13.40;99.90;;;;;;4995693;28;20477;-72
2024/02/28 11:23:52;;;;;;;22.20;10.13;;;13.70;99.90;;;;;;4995189;28;20500;-72
2024/02/28 11:26:20;;;;;;;21.33;10.10;;;13.90;99.90;;;;;;4992435;28;20454;-72
2024/02/28 11:28:47;;;;;;;25.57;10.60;;;13.90;99.90;;;;;;4995210;28;20477;-72
2024/02/28 11:31:15;;;;;;;20.00;10.10;;;13.60;99.90;;;;;;5001745;28;20836;-71
2024/02/28 11:33:42;;;;;;;26.20;13.77;;;14.10;99.90;;;;;;4999803;28;20499;-72
2024/02/28 11:36:11;;;;;;;20.50;9.10;;;14.10;99.90;;;;;;5002249;28;21282;-72
2024/02/28 11:38:39;;;;;;;33.07;11.60;;;13.70;99.90;;;;;;4999580;28;20493;-72
2024/02/28 11:41:06;;;;;;;20.33;9.77;;;13.70;99.90;;;;;;5005948;28;20537;-73
2024/02/28 11:43:34;;;;;;;16.87;8.37;;;14.20;99.90;;;;;;5000005;28;20465;-71
2024/02/28 11:46:01;;;;;;;9.40;6.33;;;14.10;99.90;;;;;;5002693;28;20556;-72
2024/02/28 11:48:29;;;;;;;17.17;9.70;;;13.90;99.90;;;;;;5003075;28;20503;-72
2024/02/28 11:50:58;;;;;;;20.67;10.60;;;13.80;99.90;;;;;;5009443;28;20577;-73
2024/02/28 11:53:26;;;;;;;23.53;10.23;;;14.20;99.90;;;;;;5005666;28;20457;-74
2024/02/28 11:55:53;;;;;;;25.27;12.40;;;14.60;99.90;;;;;;5003489;28;20617;-73
2024/02/28 11:58:21;;;;;;;21.20;10.50;;;14.90;99.90;;;;;;4997115;28;20466;-71
2024/02/28 12:00:49;;;;;;;33.23;12.33;;;15.50;99.90;;;;;;4999095;28;20462;-72
2024/02/28 12:03:20;;;;;;;20.30;11.20;;;16.00;99.90;;;;;;4999430;28;21090;-73
2024/02/28 12:05:48;;;;;;;23.13;10.67;;;15.70;99.90;;;;;;4999205;28;20461;-73
2024/02/28 12:08:15;;;;;;;18.53;9.43;;;15.30;99.90;;;;;;4990776;28;20956;-72
2024/02/28 12:10:42;;;;;;;23.83;8.67;;;15.10;99.90;;;;;;4998063;28;20500;-72
2024/02/28 12:13:09;;;;;;;19.00;9.40;;;14.80;99.90;;;;;;5000187;28;20464;-72
2024/02/28 12:15:36;;;;;;;20.10;9.07;;;14.80;99.90;;;;;;4996755;28;20469;-72
2024/02/28 12:18:09;;;;;;;16.20;8.67;;;15.00;99.90;;;;;;4997899;28;20461;-73
2024/02/28 12:20:36;;;;;;;19.53;8.70;;;15.20;99.90;;;;;;4995373;28;20512;-72
2024/02/28 12:23:05;;;;;;;23.07;9.23;;;15.30;99.90;;;;;;5002170;28;20527;-72
2024/02/28 12:25:32;;;;;;;17.10;9.40;;;15.60;99.90;;;;;;5000911;28;20470;-73
2024/02/28 12:27:58;;;;;;;20.43;9.33;;;15.60;99.90;;;;;;4999410;28;20474;-73
2024/02/28 12:30:26;;;;;;;28.27;8.93;;;15.40;99.90;;;;;;4988648;28;20485;-73
2024/02/28 12:32:53;;;;;;;19.70;8.37;;;15.60;99.90;;;;;;4998646;28;20458;-73
2024/02/28 12:35:20;;;;;;;21.23;10.10;;;15.70;99.90;;;;;;4994463;28;21078;-72
2024/02/28 12:37:48;;;;;;;16.37;10.00;;;16.20;99.90;;;;;;4995070;28;20561;-73
2024/02/28 12:40:17;;;;;;;21.17;7.90;;;16.80;99.90;;;;;;4998555;28;20565;-73